sensor_id;sensor_type;location;lat;lon;timestamp;pressure;altitude;pressure_sealevel;temperature;humidity
42519;BME280;28147;47.520;18.920;2023-05-19T00:01:11;99050.91;;;18.72;67.73
42519;BME280;28147;47.520;18.920;2023-05-19T00:03:47;99044.13;;;18.49;68.82
42519;BME280;28147;47.520;18.920;2023-05-19T00:06:13;99047.88;;;18.22;70.03
42519;BME280;28147;47.520;18.920;2023-05-19T00:08:39;99049.22;;;18.15;70.27
42519;BME280;28147;47.520;18.920;2023-05-19T00:11:05;99046.00;;;18.28;70.05
42519;BME280;28147;47.520;18.920;2023-05-19T00:13:31;99043.25;;;18.03;71.29
42519;BME280;28147;47.520;18.920;2023-05-19T00:15:56;99038.13;;;18.06;70.83
42519;BME280;28147;47.520;18.920;2023-05-19T00:18:22;99033.59;;;18.12;70.75
42519;BME280;28147;47.520;18.920;2023-05-19T00:20:47;99029.81;;;18.08;70.72
42519;BME280;28147;47.520;18.920;2023-05-19T00:23:13;99035.75;;;18.15;70.67
42519;BME280;28147;47.520;18.920;2023-05-19T00:25:38;99042.75;;;18.16;70.76
42519;BME280;28147;47.520;18.920;2023-05-19T00:28:04;99039.78;;;18.17;70.58
42519;BME280;28147;47.520;18.920;2023-05-19T00:30:30;99037.34;;;18.16;70.41
42519;BME280;28147;47.520;18.920;2023-05-19T00:32:55;99046.78;;;18.13;70.11
42519;BME280;28147;47.520;18.920;2023-05-19T00:35:22;99039.75;;;18.02;70.13
42519;BME280;28147;47.520;18.920;2023-05-19T00:37:47;99030.34;;;17.99;70.37
42519;BME280;28147;47.520;18.920;2023-05-19T00:40:13;99032.72;;;17.86;70.91
42519;BME280;28147;47.520;18.920;2023-05-19T00:42:39;99028.16;;;17.96;70.79
42519;BME280;28147;47.520;18.920;2023-05-19T00:45:05;99027.34;;;18.01;70.67
42519;BME280;28147;47.520;18.920;2023-05-19T00:47:30;99031.72;;;18.22;69.68
42519;BME280;28147;47.520;18.920;2023-05-19T00:49:56;99028.97;;;17.97;70.82
42519;BME280;28147;47.520;18.920;2023-05-19T00:52:21;99031.41;;;18.04;70.78
42519;BME280;28147;47.520;18.920;2023-05-19T00:54:47;99025.50;;;18.12;70.78
42519;BME280;28147;47.520;18.920;2023-05-19T00:57:13;99025.75;;;18.10;70.38
42519;BME280;28147;47.520;18.920;2023-05-19T00:59:39;99027.34;;;18.06;70.43
42519;BME280;28147;47.520;18.920;2023-05-19T01:02:05;99028.44;;;18.00;70.69
42519;BME280;28147;47.520;18.920;2023-05-19T01:04:31;99031.97;;;18.21;69.79
42519;BME280;28147;47.520;18.920;2023-05-19T01:06:59;99029.53;;;18.09;70.08
42519;BME280;28147;47.520;18.920;2023-05-19T01:09:25;99029.50;;;17.99;69.88
42519;BME280;28147;47.520;18.920;2023-05-19T01:11:50;99028.69;;;17.88;70.56
42519;BME280;28147;47.520;18.920;2023-05-19T01:14:16;99034.84;;;17.84;70.51
42519;BME280;28147;47.520;18.920;2023-05-19T01:16:49;99022.22;;;17.84;70.20
42519;BME280;28147;47.520;18.920;2023-05-19T01:22:41;99026.69;;;17.58;71.01
42519;BME280;28147;47.520;18.920;2023-05-19T01:31:01;99027.19;;;17.55;71.22
42519;BME280;28147;47.520;18.920;2023-05-19T01:33:29;99025.88;;;17.63;70.57
42519;BME280;28147;47.520;18.920;2023-05-19T01:35:56;99032.28;;;17.46;71.02
42519;BME280;28147;47.520;18.920;2023-05-19T01:38:24;99032.75;;;17.33;71.27
42519;BME280;28147;47.520;18.920;2023-05-19T01:40:51;99032.25;;;17.41;71.21
42519;BME280;28147;47.520;18.920;2023-05-19T01:43:19;99042.25;;;17.51;70.54
42519;BME280;28147;47.520;18.920;2023-05-19T01:45:45;99031.72;;;17.49;70.88
42519;BME280;28147;47.520;18.920;2023-05-19T01:48:11;99034.66;;;17.38;71.49
42519;BME280;28147;47.520;18.920;2023-05-19T01:50:38;99039.50;;;17.41;71.35
42519;BME280;28147;47.520;18.920;2023-05-19T01:53:04;99039.72;;;17.24;71.63
42519;BME280;28147;47.520;18.920;2023-05-19T01:55:29;99038.44;;;17.42;71.74
42519;BME280;28147;47.520;18.920;2023-05-19T01:58:17;99030.41;;;17.47;71.19
42519;BME280;28147;47.520;18.920;2023-05-19T02:03:17;99036.25;;;17.34;72.52
42519;BME280;28147;47.520;18.920;2023-05-19T02:05:54;99035.44;;;17.38;72.03
42519;BME280;28147;47.520;18.920;2023-05-19T02:08:39;99028.41;;;17.27;71.95
42519;BME280;28147;47.520;18.920;2023-05-19T02:13:42;99026.63;;;17.00;72.82
42519;BME280;28147;47.520;18.920;2023-05-19T02:16:09;99034.97;;;16.94;73.55
42519;BME280;28147;47.520;18.920;2023-05-19T02:18:36;99032.97;;;17.26;72.09
42519;BME280;28147;47.520;18.920;2023-05-19T02:21:02;99033.69;;;17.64;70.40
42519;BME280;28147;47.520;18.920;2023-05-19T02:23:27;99025.59;;;17.59;70.65
42519;BME280;28147;47.520;18.920;2023-05-19T02:25:53;99017.88;;;17.83;69.29
42519;BME280;28147;47.520;18.920;2023-05-19T02:28:18;99025.09;;;17.67;70.00
42519;BME280;28147;47.520;18.920;2023-05-19T02:30:43;99023.94;;;17.43;71.02
42519;BME280;28147;47.520;18.920;2023-05-19T02:33:09;99022.44;;;17.15;72.73
42519;BME280;28147;47.520;18.920;2023-05-19T02:35:36;99025.97;;;17.25;72.68
42519;BME280;28147;47.520;18.920;2023-05-19T02:38:04;99030.66;;;17.45;71.09
42519;BME280;28147;47.520;18.920;2023-05-19T02:40:35;99023.13;;;17.47;71.81
42519;BME280;28147;47.520;18.920;2023-05-19T02:43:01;99025.91;;;17.10;72.46
42519;BME280;28147;47.520;18.920;2023-05-19T02:45:26;99026.34;;;16.97;72.63
42519;BME280;28147;47.520;18.920;2023-05-19T02:47:52;99024.53;;;17.08;72.48
42519;BME280;28147;47.520;18.920;2023-05-19T02:50:18;99023.19;;;17.68;69.90
42519;BME280;28147;47.520;18.920;2023-05-19T02:52:43;99019.06;;;17.40;70.60
42519;BME280;28147;47.520;18.920;2023-05-19T02:55:08;99022.28;;;17.42;70.96
42519;BME280;28147;47.520;18.920;2023-05-19T02:57:34;99025.41;;;17.23;71.58
42519;BME280;28147;47.520;18.920;2023-05-19T02:59:59;99028.16;;;17.29;71.36
42519;BME280;28147;47.520;18.920;2023-05-19T03:02:25;99028.22;;;17.39;71.42
42519;BME280;28147;47.520;18.920;2023-05-19T03:04:51;99033.53;;;17.29;71.63
42519;BME280;28147;47.520;18.920;2023-05-19T03:07:17;99038.13;;;17.28;71.59
42519;BME280;28147;47.520;18.920;2023-05-19T03:09:42;99041.09;;;17.32;71.09
42519;BME280;28147;47.520;18.920;2023-05-19T03:12:08;99040.72;;;17.13;72.13
42519;BME280;28147;47.520;18.920;2023-05-19T03:14:34;99040.53;;;17.24;71.57
42519;BME280;28147;47.520;18.920;2023-05-19T03:17:01;99039.94;;;17.22;71.02
42519;BME280;28147;47.520;18.920;2023-05-19T03:19:27;99040.44;;;17.14;71.97
42519;BME280;28147;47.520;18.920;2023-05-19T03:21:53;99036.25;;;17.34;70.91
42519;BME280;28147;47.520;18.920;2023-05-19T03:24:20;99038.34;;;17.21;71.25
42519;BME280;28147;47.520;18.920;2023-05-19T03:26:45;99046.44;;;17.26;71.62
42519;BME280;28147;47.520;18.920;2023-05-19T03:29:11;99039.25;;;17.42;70.72
42519;BME280;28147;47.520;18.920;2023-05-19T03:31:37;99043.81;;;17.42;70.76
42519;BME280;28147;47.520;18.920;2023-05-19T03:34:02;99038.50;;;17.52;70.56
42519;BME280;28147;47.520;18.920;2023-05-19T03:36:28;99034.13;;;17.46;70.38
42519;BME280;28147;47.520;18.920;2023-05-19T03:38:57;99037.81;;;17.82;68.90
42519;BME280;28147;47.520;18.920;2023-05-19T03:41:22;99036.94;;;17.66;69.44
42519;BME280;28147;47.520;18.920;2023-05-19T03:43:48;99034.13;;;17.41;70.37
42519;BME280;28147;47.520;18.920;2023-05-19T03:46:13;99034.63;;;17.33;70.77
42519;BME280;28147;47.520;18.920;2023-05-19T03:48:38;99028.47;;;17.37;70.27
42519;BME280;28147;47.520;18.920;2023-05-19T03:51:04;99036.28;;;17.39;70.74
42519;BME280;28147;47.520;18.920;2023-05-19T03:53:29;99027.59;;;17.21;71.80
42519;BME280;28147;47.520;18.920;2023-05-19T03:55:55;99031.66;;;17.34;70.92
42519;BME280;28147;47.520;18.920;2023-05-19T03:58:20;99032.38;;;17.14;71.90
42519;BME280;28147;47.520;18.920;2023-05-19T04:00:46;99045.38;;;16.85;72.86
42519;BME280;28147;47.520;18.920;2023-05-19T04:03:11;99044.88;;;16.56;74.55
42519;BME280;28147;47.520;18.920;2023-05-19T04:05:36;99046.84;;;17.03;73.21
42519;BME280;28147;47.520;18.920;2023-05-19T04:08:02;99051.22;;;17.14;73.03
42519;BME280;28147;47.520;18.920;2023-05-19T04:10:27;99041.47;;;17.03;72.89
42519;BME280;28147;47.520;18.920;2023-05-19T04:12:53;99049.97;;;17.32;72.34
42519;BME280;28147;47.520;18.920;2023-05-19T04:15:18;99044.38;;;17.49;71.44
42519;BME280;28147;47.520;18.920;2023-05-19T04:17:44;99051.97;;;17.57;71.19
42519;BME280;28147;47.520;18.920;2023-05-19T04:20:10;99060.09;;;17.72;71.19
42519;BME280;28147;47.520;18.920;2023-05-19T04:22:36;99052.56;;;17.74;70.82
42519;BME280;28147;47.520;18.920;2023-05-19T04:25:01;99052.38;;;17.81;70.45
42519;BME280;28147;47.520;18.920;2023-05-19T04:27:28;99062.34;;;17.91;70.51
42519;BME280;28147;47.520;18.920;2023-05-19T04:29:56;99060.19;;;17.88;70.30
42519;BME280;28147;47.520;18.920;2023-05-19T04:32:22;99051.19;;;17.67;70.75
42519;BME280;28147;47.520;18.920;2023-05-19T04:34:48;99059.84;;;17.74;70.93
42519;BME280;28147;47.520;18.920;2023-05-19T04:37:13;99060.84;;;17.58;71.50
42519;BME280;28147;47.520;18.920;2023-05-19T04:39:40;99068.91;;;17.58;71.53
42519;BME280;28147;47.520;18.920;2023-05-19T04:42:08;99067.59;;;17.60;71.46
42519;BME280;28147;47.520;18.920;2023-05-19T04:44:40;99066.03;;;17.74;71.09
42519;BME280;28147;47.520;18.920;2023-05-19T04:47:09;99071.97;;;17.77;70.81
42519;BME280;28147;47.520;18.920;2023-05-19T04:49:35;99075.53;;;17.35;71.99
42519;BME280;28147;47.520;18.920;2023-05-19T04:52:07;99072.59;;;17.94;71.08
42519;BME280;28147;47.520;18.920;2023-05-19T04:54:37;99076.19;;;18.40;69.16
42519;BME280;28147;47.520;18.920;2023-05-19T04:57:03;99081.31;;;18.27;68.33
42519;BME280;28147;47.520;18.920;2023-05-19T04:59:28;99076.69;;;18.22;68.99
42519;BME280;28147;47.520;18.920;2023-05-19T05:01:55;99074.50;;;17.41;71.29
42519;BME280;28147;47.520;18.920;2023-05-19T05:04:20;99072.31;;;17.95;70.05
42519;BME280;28147;47.520;18.920;2023-05-19T05:06:46;99085.13;;;18.61;68.16
42519;BME280;28147;47.520;18.920;2023-05-19T05:09:16;99074.31;;;18.51;67.66
42519;BME280;28147;47.520;18.920;2023-05-19T05:11:42;99081.34;;;19.03;66.59
42519;BME280;28147;47.520;18.920;2023-05-19T05:14:08;99078.88;;;18.25;68.84
42519;BME280;28147;47.520;18.920;2023-05-19T05:16:34;99086.72;;;18.52;68.12
42519;BME280;28147;47.520;18.920;2023-05-19T05:19:00;99088.91;;;18.86;67.97
42519;BME280;28147;47.520;18.920;2023-05-19T05:21:27;99093.16;;;19.38;66.36
42519;BME280;28147;47.520;18.920;2023-05-19T05:23:53;99086.34;;;19.66;65.89
42519;BME280;28147;47.520;18.920;2023-05-19T05:26:19;99100.22;;;18.67;68.26
42519;BME280;28147;47.520;18.920;2023-05-19T05:28:48;99106.69;;;18.66;69.16
42519;BME280;28147;47.520;18.920;2023-05-19T05:31:14;99097.28;;;18.74;69.22
42519;BME280;28147;47.520;18.920;2023-05-19T05:33:40;99098.53;;;19.63;66.53
42519;BME280;28147;47.520;18.920;2023-05-19T05:36:06;99098.78;;;19.67;66.30
42519;BME280;28147;47.520;18.920;2023-05-19T05:38:31;99095.84;;;19.38;66.82
42519;BME280;28147;47.520;18.920;2023-05-19T05:40:57;99105.09;;;19.22;66.21
42519;BME280;28147;47.520;18.920;2023-05-19T05:43:22;99105.91;;;19.17;67.62
42519;BME280;28147;47.520;18.920;2023-05-19T05:45:48;99102.31;;;19.62;66.28
42519;BME280;28147;47.520;18.920;2023-05-19T05:48:13;99106.09;;;19.51;66.73
42519;BME280;28147;47.520;18.920;2023-05-19T05:50:42;99105.00;;;19.67;66.47
42519;BME280;28147;47.520;18.920;2023-05-19T05:53:08;99104.03;;;18.77;68.62
42519;BME280;28147;47.520;18.920;2023-05-19T05:55:34;99097.13;;;19.61;66.78
42519;BME280;28147;47.520;18.920;2023-05-19T05:58:00;99103.19;;;20.07;65.88
42519;BME280;28147;47.520;18.920;2023-05-19T06:00:27;99102.41;;;20.02;66.06
42519;BME280;28147;47.520;18.920;2023-05-19T06:02:54;99101.06;;;19.99;64.42
42519;BME280;28147;47.520;18.920;2023-05-19T06:05:19;99098.53;;;19.48;64.13
42519;BME280;28147;47.520;18.920;2023-05-19T06:07:45;99104.03;;;18.82;67.50
42519;BME280;28147;47.520;18.920;2023-05-19T06:10:10;99114.75;;;19.43;66.61
42519;BME280;28147;47.520;18.920;2023-05-19T06:12:36;99116.84;;;19.61;65.91
42519;BME280;28147;47.520;18.920;2023-05-19T06:15:06;99122.25;;;19.61;64.39
42519;BME280;28147;47.520;18.920;2023-05-19T06:17:33;99120.47;;;18.75;66.15
42519;BME280;28147;47.520;18.920;2023-05-19T06:20:00;99115.25;;;19.71;63.41
42519;BME280;28147;47.520;18.920;2023-05-19T06:22:26;99114.94;;;19.82;64.22
42519;BME280;28147;47.520;18.920;2023-05-19T06:24:52;99109.47;;;19.98;63.35
42519;BME280;28147;47.520;18.920;2023-05-19T06:27:18;99122.31;;;19.51;63.50
42519;BME280;28147;47.520;18.920;2023-05-19T06:29:43;99122.25;;;20.31;61.04
42519;BME280;28147;47.520;18.920;2023-05-19T06:32:09;99124.94;;;19.77;63.19
42519;BME280;28147;47.520;18.920;2023-05-19T06:34:34;99119.38;;;20.62;61.98
42519;BME280;28147;47.520;18.920;2023-05-19T06:37:02;99125.47;;;20.38;61.38
42519;BME280;28147;47.520;18.920;2023-05-19T06:39:28;99131.19;;;19.67;60.07
42519;BME280;28147;47.520;18.920;2023-05-19T06:41:53;99129.34;;;19.42;61.68
42519;BME280;28147;47.520;18.920;2023-05-19T06:44:18;99136.53;;;19.87;62.25
42519;BME280;28147;47.520;18.920;2023-05-19T06:46:44;99136.88;;;20.75;60.23
42519;BME280;28147;47.520;18.920;2023-05-19T06:49:09;99136.47;;;21.21;61.01
42519;BME280;28147;47.520;18.920;2023-05-19T06:51:35;99136.13;;;21.61;59.97
42519;BME280;28147;47.520;18.920;2023-05-19T06:54:00;99137.81;;;20.94;58.45
42519;BME280;28147;47.520;18.920;2023-05-19T06:56:26;99147.56;;;20.56;60.83
42519;BME280;28147;47.520;18.920;2023-05-19T06:58:51;99150.09;;;20.32;60.01
42519;BME280;28147;47.520;18.920;2023-05-19T07:01:17;99155.16;;;20.54;60.60
42519;BME280;28147;47.520;18.920;2023-05-19T07:03:43;99156.88;;;21.13;60.30
42519;BME280;28147;47.520;18.920;2023-05-19T07:06:08;99154.69;;;21.15;60.74
42519;BME280;28147;47.520;18.920;2023-05-19T07:08:34;99151.25;;;21.04;57.72
42519;BME280;28147;47.520;18.920;2023-05-19T07:11:01;99154.06;;;21.23;58.64
42519;BME280;28147;47.520;18.920;2023-05-19T07:13:26;99151.34;;;21.57;57.38
42519;BME280;28147;47.520;18.920;2023-05-19T07:15:52;99154.22;;;21.90;57.52
42519;BME280;28147;47.520;18.920;2023-05-19T07:18:20;99143.44;;;21.85;56.90
42519;BME280;28147;47.520;18.920;2023-05-19T07:20:45;99143.91;;;21.68;55.68
42519;BME280;28147;47.520;18.920;2023-05-19T07:23:11;99150.22;;;21.58;57.07
42519;BME280;28147;47.520;18.920;2023-05-19T07:25:36;99143.25;;;21.52;58.78
42519;BME280;28147;47.520;18.920;2023-05-19T07:28:02;99144.19;;;21.67;57.63
42519;BME280;28147;47.520;18.920;2023-05-19T07:30:28;99150.59;;;21.76;58.46
42519;BME280;28147;47.520;18.920;2023-05-19T07:32:53;99142.00;;;21.10;57.00
42519;BME280;28147;47.520;18.920;2023-05-19T07:35:19;99148.44;;;21.49;58.36
42519;BME280;28147;47.520;18.920;2023-05-19T07:37:47;99147.53;;;21.82;58.60
42519;BME280;28147;47.520;18.920;2023-05-19T07:40:13;99139.59;;;21.67;58.33
42519;BME280;28147;47.520;18.920;2023-05-19T07:42:39;99144.47;;;21.65;57.45
42519;BME280;28147;47.520;18.920;2023-05-19T07:45:04;99143.94;;;22.11;56.92
42519;BME280;28147;47.520;18.920;2023-05-19T07:47:30;99138.41;;;22.59;56.29
42519;BME280;28147;47.520;18.920;2023-05-19T07:49:55;99131.63;;;23.41;55.46
42519;BME280;28147;47.520;18.920;2023-05-19T07:52:21;99138.81;;;23.04;51.80
42519;BME280;28147;47.520;18.920;2023-05-19T07:54:46;99136.63;;;24.08;51.66
42519;BME280;28147;47.520;18.920;2023-05-19T07:57:12;99135.25;;;21.90;52.58
42519;BME280;28147;47.520;18.920;2023-05-19T07:59:38;99128.72;;;23.37;52.00
42519;BME280;28147;47.520;18.920;2023-05-19T08:02:04;99130.59;;;22.90;52.64
42519;BME280;28147;47.520;18.920;2023-05-19T08:04:30;99132.31;;;23.79;51.29
42519;BME280;28147;47.520;18.920;2023-05-19T08:06:55;99122.91;;;22.97;53.85
42519;BME280;28147;47.520;18.920;2023-05-19T08:09:20;99127.09;;;23.69;53.13
42519;BME280;28147;47.520;18.920;2023-05-19T08:11:46;99124.53;;;22.61;50.92
42519;BME280;28147;47.520;18.920;2023-05-19T08:14:12;99122.81;;;22.83;52.52
42519;BME280;28147;47.520;18.920;2023-05-19T08:16:37;99117.50;;;22.22;52.55
42519;BME280;28147;47.520;18.920;2023-05-19T08:19:02;99123.97;;;22.45;53.46
42519;BME280;28147;47.520;18.920;2023-05-19T08:21:30;99113.13;;;22.45;52.68
42519;BME280;28147;47.520;18.920;2023-05-19T08:23:59;99110.66;;;23.00;53.06
42519;BME280;28147;47.520;18.920;2023-05-19T08:26:25;99116.78;;;23.05;52.86
42519;BME280;28147;47.520;18.920;2023-05-19T08:28:51;99114.16;;;23.00;51.76
42519;BME280;28147;47.520;18.920;2023-05-19T08:31:16;99119.41;;;23.85;51.57
42519;BME280;28147;47.520;18.920;2023-05-19T08:33:42;99115.13;;;24.20;51.65
42519;BME280;28147;47.520;18.920;2023-05-19T08:36:08;99114.72;;;24.13;50.78
42519;BME280;28147;47.520;18.920;2023-05-19T08:38:33;99121.41;;;24.57;49.36
42519;BME280;28147;47.520;18.920;2023-05-19T08:40:59;99119.97;;;24.09;49.59
42519;BME280;28147;47.520;18.920;2023-05-19T08:43:24;99125.84;;;23.75;49.49
42519;BME280;28147;47.520;18.920;2023-05-19T08:45:51;99124.13;;;23.38;50.89
42519;BME280;28147;47.520;18.920;2023-05-19T08:48:20;99119.28;;;23.02;51.01
42519;BME280;28147;47.520;18.920;2023-05-19T08:50:54;99111.94;;;22.70;53.39
42519;BME280;28147;47.520;18.920;2023-05-19T08:53:26;99117.81;;;22.91;54.97
42519;BME280;28147;47.520;18.920;2023-05-19T08:59:01;99117.59;;;23.06;51.64
42519;BME280;28147;47.520;18.920;2023-05-19T09:01:28;99120.31;;;23.52;51.42
42519;BME280;28147;47.520;18.920;2023-05-19T09:03:54;99117.25;;;24.23;49.68
42519;BME280;28147;47.520;18.920;2023-05-19T09:06:20;99115.81;;;23.75;50.08
42519;BME280;28147;47.520;18.920;2023-05-19T09:08:45;99119.81;;;23.78;50.40
42519;BME280;28147;47.520;18.920;2023-05-19T09:11:11;99120.81;;;23.82;52.13
42519;BME280;28147;47.520;18.920;2023-05-19T09:13:37;99115.16;;;23.51;53.50
42519;BME280;28147;47.520;18.920;2023-05-19T09:16:03;99117.75;;;23.28;54.08
42519;BME280;28147;47.520;18.920;2023-05-19T09:18:29;99122.63;;;23.45;54.40
42519;BME280;28147;47.520;18.920;2023-05-19T09:21:01;99117.59;;;23.66;52.97
42519;BME280;28147;47.520;18.920;2023-05-19T09:23:29;99111.88;;;23.68;52.43
42519;BME280;28147;47.520;18.920;2023-05-19T09:25:56;99109.97;;;23.68;51.85
42519;BME280;28147;47.520;18.920;2023-05-19T09:28:31;99110.97;;;23.72;52.18
42519;BME280;28147;47.520;18.920;2023-05-19T09:31:08;99104.81;;;23.81;51.75
42519;BME280;28147;47.520;18.920;2023-05-19T09:33:38;99116.34;;;23.45;51.97
42519;BME280;28147;47.520;18.920;2023-05-19T09:36:04;99114.66;;;23.02;50.26
42519;BME280;28147;47.520;18.920;2023-05-19T09:38:31;99108.41;;;23.35;50.43
42519;BME280;28147;47.520;18.920;2023-05-19T09:40:57;99112.09;;;23.25;50.04
42519;BME280;28147;47.520;18.920;2023-05-19T09:43:25;99107.34;;;23.91;49.47
42519;BME280;28147;47.520;18.920;2023-05-19T09:46:09;99105.91;;;25.33;49.47
42519;BME280;28147;47.520;18.920;2023-05-19T09:48:37;99105.28;;;24.60;49.45
42519;BME280;28147;47.520;18.920;2023-05-19T09:51:04;99101.44;;;24.25;50.40
42519;BME280;28147;47.520;18.920;2023-05-19T09:53:33;99103.19;;;23.66;49.32
42519;BME280;28147;47.520;18.920;2023-05-19T09:56:00;99102.56;;;23.55;48.45
42519;BME280;28147;47.520;18.920;2023-05-19T09:58:30;99096.66;;;22.93;50.86
42519;BME280;28147;47.520;18.920;2023-05-19T10:00:57;99094.69;;;23.12;48.68
42519;BME280;28147;47.520;18.920;2023-05-19T10:03:24;99090.00;;;22.99;49.72
42519;BME280;28147;47.520;18.920;2023-05-19T10:05:51;99098.47;;;22.97;49.51
42519;BME280;28147;47.520;18.920;2023-05-19T10:08:17;99085.97;;;22.64;51.20
42519;BME280;28147;47.520;18.920;2023-05-19T10:10:45;99092.44;;;22.49;50.83
42519;BME280;28147;47.520;18.920;2023-05-19T10:13:11;99082.31;;;22.54;49.36
42519;BME280;28147;47.520;18.920;2023-05-19T10:15:37;99082.25;;;23.80;49.67
42519;BME280;28147;47.520;18.920;2023-05-19T10:18:05;99067.31;;;24.86;46.33
42519;BME280;28147;47.520;18.920;2023-05-19T10:20:31;99064.59;;;24.86;46.45
42519;BME280;28147;47.520;18.920;2023-05-19T10:22:59;99056.84;;;25.33;45.15
42519;BME280;28147;47.520;18.920;2023-05-19T10:25:24;99065.94;;;24.97;44.78
42519;BME280;28147;47.520;18.920;2023-05-19T10:27:54;99072.66;;;25.54;43.54
42519;BME280;28147;47.520;18.920;2023-05-19T10:30:25;99065.09;;;26.34;41.63
42519;BME280;28147;47.520;18.920;2023-05-19T10:32:53;99062.81;;;25.92;42.51
42519;BME280;28147;47.520;18.920;2023-05-19T10:46:29;99071.22;;;25.16;47.07
42519;BME280;28147;47.520;18.920;2023-05-19T10:48:55;99072.53;;;24.74;46.61
42519;BME280;28147;47.520;18.920;2023-05-19T10:51:27;99065.59;;;24.68;46.63
42519;BME280;28147;47.520;18.920;2023-05-19T10:53:54;99056.13;;;25.50;45.33
42519;BME280;28147;47.520;18.920;2023-05-19T10:56:30;99052.25;;;26.34;42.37
42519;BME280;28147;47.520;18.920;2023-05-19T10:58:58;99051.69;;;26.93;41.54
42519;BME280;28147;47.520;18.920;2023-05-19T11:01:30;99041.78;;;25.93;41.52
42519;BME280;28147;47.520;18.920;2023-05-19T11:03:55;99053.66;;;26.06;42.87
42519;BME280;28147;47.520;18.920;2023-05-19T11:06:33;99044.84;;;26.35;42.40
42519;BME280;28147;47.520;18.920;2023-05-19T11:09:09;99049.69;;;25.15;44.83
42519;BME280;28147;47.520;18.920;2023-05-19T11:11:49;99041.84;;;24.82;46.29
42519;BME280;28147;47.520;18.920;2023-05-19T11:14:20;99044.19;;;24.75;47.15
42519;BME280;28147;47.520;18.920;2023-05-19T11:16:51;99040.50;;;25.90;44.26
42519;BME280;28147;47.520;18.920;2023-05-19T11:19:27;99047.25;;;26.36;42.20
42519;BME280;28147;47.520;18.920;2023-05-19T11:21:53;99046.78;;;26.00;41.93
42519;BME280;28147;47.520;18.920;2023-05-19T11:24:45;99038.25;;;26.79;42.65
42519;BME280;28147;47.520;18.920;2023-05-19T11:27:31;99046.03;;;27.15;41.49
42519;BME280;28147;47.520;18.920;2023-05-19T11:29:58;99043.88;;;26.39;39.99
42519;BME280;28147;47.520;18.920;2023-05-19T11:32:27;99040.50;;;26.42;39.93
42519;BME280;28147;47.520;18.920;2023-05-19T11:34:54;99031.31;;;26.90;41.01
42519;BME280;28147;47.520;18.920;2023-05-19T11:37:20;99044.41;;;26.50;42.19
42519;BME280;28147;47.520;18.920;2023-05-19T11:39:46;99038.44;;;26.57;40.64
42519;BME280;28147;47.520;18.920;2023-05-19T11:42:12;99038.34;;;27.00;40.75
42519;BME280;28147;47.520;18.920;2023-05-19T11:44:37;99041.81;;;26.71;40.93
42519;BME280;28147;47.520;18.920;2023-05-19T11:47:05;99037.25;;;26.84;42.10
42519;BME280;28147;47.520;18.920;2023-05-19T11:49:30;99045.69;;;26.18;45.61
42519;BME280;28147;47.520;18.920;2023-05-19T11:51:56;99047.50;;;26.96;43.82
42519;BME280;28147;47.520;18.920;2023-05-19T11:54:30;99046.28;;;26.76;41.65
42519;BME280;28147;47.520;18.920;2023-05-19T11:56:56;99046.63;;;26.31;41.46
42519;BME280;28147;47.520;18.920;2023-05-19T11:59:35;99041.97;;;26.14;43.70
42519;BME280;28147;47.520;18.920;2023-05-19T12:02:22;99051.91;;;26.10;42.22
42519;BME280;28147;47.520;18.920;2023-05-19T12:04:51;99048.03;;;25.36;42.71
42519;BME280;28147;47.520;18.920;2023-05-19T12:07:18;99052.19;;;24.49;44.15
42519;BME280;28147;47.520;18.920;2023-05-19T12:09:45;99047.53;;;25.34;43.53
42519;BME280;28147;47.520;18.920;2023-05-19T12:12:21;99047.75;;;25.46;42.96
42519;BME280;28147;47.520;18.920;2023-05-19T12:14:49;99043.84;;;25.30;43.10
42519;BME280;28147;47.520;18.920;2023-05-19T12:17:17;99037.00;;;24.79;41.69
42519;BME280;28147;47.520;18.920;2023-05-19T12:19:45;99036.50;;;25.39;42.70
42519;BME280;28147;47.520;18.920;2023-05-19T12:22:11;99039.59;;;25.46;41.66
42519;BME280;28147;47.520;18.920;2023-05-19T12:24:38;99029.78;;;26.03;39.74
42519;BME280;28147;47.520;18.920;2023-05-19T12:27:18;99016.88;;;25.77;38.60
42519;BME280;28147;47.520;18.920;2023-05-19T12:29:54;99015.69;;;25.61;40.26
42519;BME280;28147;47.520;18.920;2023-05-19T12:32:25;99015.84;;;25.56;40.90
42519;BME280;28147;47.520;18.920;2023-05-19T12:34:52;99010.22;;;25.43;41.05
42519;BME280;28147;47.520;18.920;2023-05-19T12:37:19;99002.47;;;25.85;41.48
42519;BME280;28147;47.520;18.920;2023-05-19T12:39:47;98985.97;;;25.33;39.70
42519;BME280;28147;47.520;18.920;2023-05-19T12:42:14;98994.66;;;25.35;40.39
42519;BME280;28147;47.520;18.920;2023-05-19T12:44:45;98990.00;;;25.44;39.74
42519;BME280;28147;47.520;18.920;2023-05-19T12:47:11;98997.47;;;25.79;40.79
42519;BME280;28147;47.520;18.920;2023-05-19T12:49:55;98989.78;;;25.89;41.81
42519;BME280;28147;47.520;18.920;2023-05-19T12:52:22;98999.25;;;25.26;42.48
42519;BME280;28147;47.520;18.920;2023-05-19T12:54:58;98996.84;;;25.24;43.48
42519;BME280;28147;47.520;18.920;2023-05-19T12:57:25;98989.69;;;24.97;42.96
42519;BME280;28147;47.520;18.920;2023-05-19T12:59:51;98987.94;;;25.02;43.97
42519;BME280;28147;47.520;18.920;2023-05-19T13:02:17;98975.16;;;25.11;44.48
42519;BME280;28147;47.520;18.920;2023-05-19T13:04:43;98979.72;;;25.41;44.18
42519;BME280;28147;47.520;18.920;2023-05-19T13:07:08;98984.94;;;25.78;43.12
42519;BME280;28147;47.520;18.920;2023-05-19T13:09:34;98980.41;;;25.64;43.60
42519;BME280;28147;47.520;18.920;2023-05-19T13:12:00;98983.06;;;25.21;44.37
42519;BME280;28147;47.520;18.920;2023-05-19T13:14:26;98981.38;;;25.42;41.26
42519;BME280;28147;47.520;18.920;2023-05-19T13:16:51;98977.59;;;25.78;39.92
42519;BME280;28147;47.520;18.920;2023-05-19T13:19:18;98980.84;;;25.23;42.97